Time;durP1;ratioP1;P1;durP2;ratioP2;P2;SDS_P1;SDS_P2;PMS_P1;PMS_P2;Temp;Humidity;BMP_temperature;BMP_pressure;BME280_temperature;BME280_humidity;BME280_pressure;Samples;Min_cycle;Max_cycle;Signal;HPM_P1;HPM_P2
2023/09/16 00:00:33;;;;;;;4.65;1.87;;;;;;;21.40;49.18;99527.59;4364528;32;33263;-92
2023/09/16 00:03:02;;;;;;;4.25;2.05;;;;;;;21.47;49.23;99526.53;4373040;32;35107;-93
2023/09/16 00:05:30;;;;;;;7.12;1.92;;;;;;;21.33;49.40;99529.53;4350379;32;33977;-93
2023/09/16 00:07:57;;;;;;;3.90;1.90;;;;;;;21.27;49.52;99535.78;4374782;32;34009;-93
2023/09/16 00:10:25;;;;;;;6.22;2.22;;;;;;;21.31;49.52;99532.16;4374898;32;34277;-92
2023/09/16 00:12:53;;;;;;;4.55;1.70;;;;;;;21.16;49.75;99529.91;4371002;32;34662;-93
2023/09/16 00:15:22;;;;;;;4.40;1.65;;;;;;;21.14;49.93;99539.62;4362900;32;34174;-94
2023/09/16 00:17:49;;;;;;;7.10;1.87;;;;;;;21.18;49.92;99541.28;4362255;32;33545;-92
2023/09/16 00:20:17;;;;;;;4.85;2.03;;;;;;;21.14;50.08;99534.38;4374664;32;33050;-91
2023/09/16 00:22:45;;;;;;;6.28;1.77;;;;;;;21.14;50.12;99542.28;4375612;32;34861;-93
2023/09/16 00:25:14;;;;;;;4.78;1.73;;;;;;;21.11;49.99;99542.34;4354621;32;35050;-94
2023/09/16 00:27:41;;;;;;;4.65;2.00;;;;;;;21.12;50.02;99544.06;4374494;32;33603;-92
2023/09/16 00:30:09;;;;;;;5.65;2.15;;;;;;;21.06;50.13;99541.56;4375749;32;33508;-94
2023/09/16 00:32:37;;;;;;;4.50;1.58;;;;;;;20.99;50.17;99540.00;4375917;32;34001;-92
2023/09/16 00:35:05;;;;;;;4.30;2.03;;;;;;;21.01;50.26;99538.19;4373292;32;34131;-91
2023/09/16 00:37:32;;;;;;;4.80;2.08;;;;;;;21.03;50.45;99542.53;4375417;32;33642;-89
2023/09/16 00:40:00;;;;;;;5.43;1.95;;;;;;;20.93;50.39;99542.78;4375465;32;33324;-93
2023/09/16 00:42:28;;;;;;;5.90;2.08;;;;;;;20.95;50.31;99533.94;4361178;32;34982;-90
2023/09/16 00:44:57;;;;;;;4.55;2.10;;;;;;;20.96;50.61;99540.06;4359825;32;34685;-93
2023/09/16 00:47:24;;;;;;;5.00;2.20;;;;;;;20.96;50.72;99532.16;4360704;32;34773;-91
2023/09/16 00:49:52;;;;;;;4.87;2.00;;;;;;;20.77;51.14;99532.59;4359565;32;34183;-91
2023/09/16 00:52:19;;;;;;;4.07;1.73;;;;;;;20.85;51.12;99530.63;4346527;32;34001;-93
2023/09/16 00:54:51;;;;;;;5.15;2.00;;;;;;;20.88;51.15;99529.72;4346512;32;34304;-91
2023/09/16 00:57:19;;;;;;;4.80;2.25;;;;;;;20.86;51.18;99527.09;4335525;32;34852;-92
2023/09/16 00:59:46;;;;;;;4.53;2.05;;;;;;;20.94;51.05;99536.59;4360083;32;34289;-93
2023/09/16 01:02:15;;;;;;;4.28;1.95;;;;;;;20.93;50.78;99534.88;4347313;32;34067;-93
2023/09/16 01:04:42;;;;;;;4.85;2.08;;;;;;;20.99;50.77;99534.72;4347158;32;34978;-92
2023/09/16 01:07:10;;;;;;;5.18;2.03;;;;;;;21.00;51.02;99536.47;4360548;32;33501;-90
2023/09/16 01:09:39;;;;;;;4.97;2.00;;;;;;;20.92;51.08;99538.41;4359446;32;33303;-91
2023/09/16 01:12:08;;;;;;;5.43;1.75;;;;;;;20.98;50.86;99535.63;4347052;32;33884;-90
2023/09/16 01:14:37;;;;;;;4.82;1.80;;;;;;;20.92;51.58;99536.63;4360685;32;33984;-91
2023/09/16 01:17:18;;;;;;;4.65;1.92;;;;;;;20.98;51.39;99535.63;4347164;32;33797;-92
2023/09/16 01:20:11;;;;;;;4.20;1.60;;;;;;;21.00;51.40;99534.69;4346329;32;34128;-91
2023/09/16 01:22:44;;;;;;;3.95;1.83;;;;;;;21.17;51.17;99531.62;4332481;33;33900;-93
2023/09/16 01:25:14;;;;;;;6.70;1.90;;;;;;;21.07;51.48;99536.28;4333065;33;34007;-92
2023/09/16 01:27:42;;;;;;;4.93;2.03;;;;;;;21.03;51.47;99536.37;4345781;33;33980;-91
2023/09/16 01:30:11;;;;;;;4.15;1.80;;;;;;;20.82;52.08;99535.97;4344364;32;33385;-92
2023/09/16 01:32:49;;;;;;;3.78;1.80;;;;;;;20.82;52.21;99532.47;4360495;32;34665;-93
2023/09/16 01:35:18;;;;;;;4.57;2.00;;;;;;;20.69;52.47;99529.25;4360413;32;34086;-91
2023/09/16 01:37:46;;;;;;;6.00;1.85;;;;;;;20.71;52.35;99535.34;4360491;32;34294;-92
2023/09/16 01:40:14;;;;;;;5.07;1.92;;;;;;;20.88;52.03;99533.22;4348043;32;33197;-93
2023/09/16 01:42:42;;;;;;;5.75;2.30;;;;;;;20.85;52.21;99528.00;4358941;32;33527;-89
2023/09/16 01:45:10;;;;;;;4.78;1.92;;;;;;;20.97;51.96;99532.12;4357921;32;34944;-91
2023/09/16 01:47:38;;;;;;;5.15;2.10;;;;;;;20.81;52.03;99531.62;4359658;32;34088;-89
2023/09/16 01:50:06;;;;;;;4.15;2.10;;;;;;;20.78;52.24;99539.59;4360122;32;33684;-93
2023/09/16 01:52:34;;;;;;;3.97;1.70;;;;;;;20.92;51.87;99533.12;4360243;32;34765;-89
2023/09/16 01:55:01;;;;;;;4.20;1.98;;;;;;;21.01;51.66;99538.19;4359264;32;33747;-90
2023/09/16 01:57:30;;;;;;;5.05;2.20;;;;;;;20.95;51.98;99535.69;4359487;32;34092;-92
2023/09/16 01:59:57;;;;;;;5.62;2.50;;;;;;;20.86;52.24;99537.63;4359839;32;33824;-91
2023/09/16 02:02:25;;;;;;;7.62;2.25;;;;;;;20.93;52.29;99534.88;4360178;32;34040;-92
2023/09/16 02:04:52;;;;;;;5.37;2.15;;;;;;;21.04;52.50;99538.97;4360006;32;35022;-93
2023/09/16 02:07:20;;;;;;;4.15;1.98;;;;;;;20.90;53.00;99535.78;4359404;32;33631;-93
2023/09/16 02:09:47;;;;;;;4.25;1.80;;;;;;;20.97;52.39;99540.03;4360248;32;33478;-93
2023/09/16 02:12:15;;;;;;;4.85;2.22;;;;;;;20.90;52.91;99541.94;4359953;32;33994;-93
2023/09/16 02:14:43;;;;;;;4.70;1.90;;;;;;;20.93;53.04;99546.28;4360112;32;34878;-94
2023/09/16 02:17:10;;;;;;;5.35;2.30;;;;;;;20.78;53.56;99552.75;4359317;32;35016;-90
2023/09/16 02:19:39;;;;;;;5.07;2.10;;;;;;;20.95;53.01;99541.84;4360181;32;34270;-93
2023/09/16 02:22:08;;;;;;;3.45;1.90;;;;;;;20.90;53.08;99541.06;4360057;32;33895;-91
2023/09/16 02:24:35;;;;;;;5.60;2.20;;;;;;;20.82;53.02;99543.87;4358975;32;33572;-95
2023/09/16 02:27:04;;;;;;;5.22;2.30;;;;;;;20.88;52.71;99538.47;4358588;32;34527;-93
2023/09/16 02:29:35;;;;;;;5.37;2.22;;;;;;;20.93;52.88;99542.78;4358683;32;34252;-94
2023/09/16 02:32:02;;;;;;;5.43;2.10;;;;;;;20.96;52.49;99537.44;4359949;32;33954;-94
2023/09/16 02:34:35;;;;;;;5.85;2.78;;;;;;;20.94;52.03;99536.59;4359459;32;34105;-90
2023/09/16 02:37:03;;;;;;;4.37;1.92;;;;;;;21.04;51.92;99530.22;4359411;32;34147;-94
2023/09/16 02:39:30;;;;;;;4.97;2.03;;;;;;;20.98;52.24;99535.63;4361935;32;33710;-89
2023/09/16 02:41:58;;;;;;;6.18;2.22;;;;;;;20.97;52.19;99532.12;4376876;32;33776;-92
2023/09/16 02:44:29;;;;;;;6.00;2.40;;;;;;;20.85;52.42;99530.63;4376835;32;35027;-93
2023/09/16 02:46:56;;;;;;;4.50;2.00;;;;;;;20.82;52.31;99541.25;4375991;32;33484;-94
2023/09/16 02:49:26;;;;;;;3.75;1.80;;;;;;;20.84;52.15;99534.19;4376648;32;32979;-91
2023/09/16 02:51:53;;;;;;;5.10;2.22;;;;;;;20.86;52.46;99536.78;4362605;32;34870;-92
2023/09/16 02:54:21;;;;;;;6.25;2.53;;;;;;;20.89;52.39;99528.78;4363106;32;34088;-90
2023/09/16 02:56:48;;;;;;;5.80;2.37;;;;;;;20.83;52.65;99532.44;4375751;32;34100;-91
2023/09/16 02:59:18;;;;;;;7.20;2.40;;;;;;;20.81;52.64;99531.62;4376804;32;34266;-92
2023/09/16 03:01:45;;;;;;;8.25;2.25;;;;;;;20.82;52.90;99525.44;4376180;32;34792;-93
2023/09/16 03:04:13;;;;;;;6.28;2.33;;;;;;;20.78;53.03;99536.09;4376279;32;35007;-92
2023/09/16 03:06:43;;;;;;;17.58;2.70;;;;;;;20.96;52.58;99529.53;4376015;32;33924;-89
2023/09/16 03:09:11;;;;;;;5.00;2.28;;;;;;;20.83;52.89;99534.19;4376198;32;33974;-93
2023/09/16 03:11:38;;;;;;;4.97;2.40;;;;;;;20.79;53.32;99532.53;4376329;32;34043;-90
2023/09/16 03:14:06;;;;;;;4.95;2.22;;;;;;;20.75;53.41;99539.66;4376583;32;35049;-93
2023/09/16 03:16:35;;;;;;;7.40;2.33;;;;;;;20.84;53.27;99534.19;4376045;32;34076;-88
2023/09/16 03:19:03;;;;;;;5.30;2.22;;;;;;;20.94;53.01;99533.97;4375807;32;33127;-93
2023/09/16 03:21:31;;;;;;;5.53;2.30;;;;;;;20.86;53.05;99534.13;4376275;32;34414;-90
2023/09/16 03:23:59;;;;;;;5.45;2.00;;;;;;;20.90;53.13;99535.78;4363090;32;34315;-92
2023/09/16 03:26:27;;;;;;;4.53;2.25;;;;;;;20.88;53.01;99538.47;4362878;32;34905;-92
2023/09/16 03:28:55;;;;;;;5.30;2.30;;;;;;;20.89;53.23;99541.97;4376001;32;33706;-90
2023/09/16 03:31:23;;;;;;;8.93;2.47;;;;;;;20.90;53.06;99541.94;4376097;32;34419;-93
2023/09/16 03:33:50;;;;;;;4.00;1.90;;;;;;;20.84;53.32;99536.81;4376320;32;35162;-92
2023/09/16 03:36:18;;;;;;;5.30;2.42;;;;;;;20.85;53.51;99551.72;4372858;32;34555;-93
2023/09/16 03:38:48;;;;;;;5.25;2.08;;;;;;;20.77;53.70;99545.75;4372801;32;33110;-92
2023/09/16 03:41:16;;;;;;;5.60;2.25;;;;;;;20.82;53.69;99548.28;4348105;32;34043;-92
2023/09/16 03:43:45;;;;;;;7.85;2.78;;;;;;;20.89;53.47;99545.47;4356985;32;33721;-93
2023/09/16 03:46:16;;;;;;;6.05;2.12;;;;;;;20.81;53.60;99541.28;4376243;32;33746;-93
2023/09/16 03:48:44;;;;;;;4.55;1.92;;;;;;;20.70;53.91;99546.81;4368762;32;34161;-91
2023/09/16 03:51:12;;;;;;;4.07;2.22;;;;;;;20.54;54.25;99538.38;4361035;32;33557;-93
2023/09/16 03:53:40;;;;;;;4.75;1.98;;;;;;;20.62;53.96;99532.94;4373082;32;34216;-92
2023/09/16 03:56:08;;;;;;;4.50;2.30;;;;;;;20.77;53.81;99537.84;4376114;32;34187;-92
2023/09/16 03:58:36;;;;;;;5.15;2.10;;;;;;;20.79;53.83;99537.81;4374842;32;34196;-92
2023/09/16 04:01:04;;;;;;;5.80;2.20;;;;;;;20.77;53.65;99544.91;4374972;32;34459;-92
2023/09/16 04:03:32;;;;;;;4.43;2.17;;;;;;;20.63;54.11;99537.28;4368414;32;34039;-92
2023/09/16 04:06:01;;;;;;;5.30;2.53;;;;;;;20.81;53.60;99541.28;4361003;32;34557;-93
2023/09/16 04:08:29;;;;;;;6.35;2.53;;;;;;;20.54;54.21;99532.25;4371971;32;34044;-91
2023/09/16 04:11:09;;;;;;;6.72;2.37;;;;;;;20.61;53.98;99528.56;4376108;32;33991;-91
2023/09/16 04:13:37;;;;;;;6.72;2.40;;;;;;;20.71;53.92;99537.13;4375585;32;34363;-91
2023/09/16 04:16:05;;;;;;;4.97;2.17;;;;;;;20.61;54.31;99531.22;4375882;32;34024;-91
2023/09/16 04:18:34;;;;;;;5.00;2.03;;;;;;;20.54;54.57;99534.88;4375821;32;33528;-91
2023/09/16 04:21:02;;;;;;;6.12;2.22;;;;;;;20.64;53.99;99534.63;4375657;32;33781;-89
2023/09/16 04:23:31;;;;;;;5.12;2.45;;;;;;;20.69;53.99;99536.31;4369107;32;34343;-93
2023/09/16 04:26:03;;;;;;;4.82;2.47;;;;;;;20.45;54.65;99535.87;4361067;32;33197;-94
2023/09/16 04:28:31;;;;;;;5.85;2.28;;;;;;;20.56;54.44;99546.22;4360962;32;33448;-95
2023/09/16 04:30:59;;;;;;;4.95;2.33;;;;;;;20.70;54.07;99546.81;4361114;32;33735;-93
2023/09/16 04:33:28;;;;;;;4.47;2.22;;;;;;;20.68;54.06;99545.94;4371042;32;35154;-95
2023/09/16 04:35:56;;;;;;;5.62;2.15;;;;;;;20.56;54.28;99546.22;4361900;32;34444;-91
2023/09/16 04:38:24;;;;;;;4.20;2.10;;;;;;;20.47;54.40;99552.53;4369098;32;33233;-93
2023/09/16 04:40:53;;;;;;;4.50;2.10;;;;;;;20.34;53.96;99546.69;4360903;32;33767;-95
2023/09/16 04:43:21;;;;;;;6.95;2.45;;;;;;;20.35;54.15;99547.53;4347674;32;33868;-91
2023/09/16 04:45:49;;;;;;;5.03;2.10;;;;;;;20.42;53.09;99549.16;4345675;33;34134;-92
2023/09/16 04:48:22;;;;;;;5.78;2.12;;;;;;;20.24;53.39;99549.53;4347387;32;33554;-91
2023/09/16 04:50:50;;;;;;;5.53;2.22;;;;;;;20.45;53.78;99545.56;4346414;33;33661;-91
2023/09/16 04:53:18;;;;;;;5.43;2.20;;;;;;;20.58;53.56;99547.06;4358034;32;33740;-91
2023/09/16 04:55:45;;;;;;;6.55;2.10;;;;;;;20.70;53.29;99552.06;4356391;32;33617;-91
2023/09/16 04:58:13;;;;;;;6.07;2.25;;;;;;;20.78;53.26;99555.38;4346307;32;33454;-90
2023/09/16 05:00:41;;;;;;;4.87;2.12;;;;;;;20.70;53.22;99557.34;4348139;32;33791;-91
2023/09/16 05:03:09;;;;;;;5.65;2.00;;;;;;;20.65;53.34;99554.81;4355979;32;34090;-92
2023/09/16 05:05:37;;;;;;;3.50;1.77;;;;;;;20.73;52.22;99559.03;4360627;32;34281;-91
2023/09/16 05:08:05;;;;;;;4.03;1.80;;;;;;;20.55;51.02;99555.91;4360738;32;34262;-90
2023/09/16 05:10:32;;;;;;;6.20;2.10;;;;;;;20.44;51.37;99551.72;4359782;32;33980;-90
2023/09/16 05:13:00;;;;;;;6.25;1.92;;;;;;;20.51;51.77;99554.25;4360778;32;33653;-90
2023/09/16 05:15:28;;;;;;;4.05;1.87;;;;;;;20.65;51.65;99552.19;4356670;32;34659;-90
2023/09/16 05:17:55;;;;;;;4.40;1.85;;;;;;;20.67;51.54;99556.53;4342217;32;33491;-90
2023/09/16 05:20:23;;;;;;;3.87;1.77;;;;;;;20.67;51.38;99559.16;4358876;32;34857;-90
2023/09/16 05:22:51;;;;;;;4.05;1.87;;;;;;;20.68;51.74;99555.62;4360718;32;34010;-92
2023/09/16 05:25:19;;;;;;;4.53;2.20;;;;;;;20.97;50.08;99555.84;4360807;32;34617;-90
2023/09/16 05:27:47;;;;;;;4.10;1.92;;;;;;;20.62;51.02;99554.00;4353179;32;33319;-90
2023/09/16 05:30:15;;;;;;;4.15;2.20;;;;;;;20.51;52.02;99563.91;4358372;32;33972;-90
2023/09/16 05:32:44;;;;;;;5.85;2.28;;;;;;;20.67;51.15;99564.44;4345873;32;34476;-92
2023/09/16 05:35:11;;;;;;;6.57;2.20;;;;;;;20.72;51.12;99568.72;4345975;32;33821;-91
2023/09/16 05:37:39;;;;;;;4.03;1.85;;;;;;;20.84;50.67;99570.22;4345725;33;33180;-91
2023/09/16 05:40:07;;;;;;;4.55;1.90;;;;;;;20.80;51.10;99563.28;4356982;32;34105;-92
2023/09/16 05:42:35;;;;;;;5.32;2.00;;;;;;;20.78;50.55;99562.44;4374308;32;33935;-89
2023/09/16 05:45:04;;;;;;;5.00;2.10;;;;;;;20.35;52.20;99553.66;4372643;32;33897;-88
2023/09/16 05:47:32;;;;;;;4.12;1.92;;;;;;;20.52;51.74;99561.22;4373361;32;33239;-94
2023/09/16 05:50:01;;;;;;;5.12;2.03;;;;;;;20.36;52.61;99558.03;4360997;32;34706;-95
2023/09/16 05:52:29;;;;;;;4.53;1.73;;;;;;;20.37;52.30;99561.53;4366385;32;34197;-94
2023/09/16 05:54:57;;;;;;;4.80;2.12;;;;;;;20.02;53.34;99565.72;4374483;32;33813;-92
2023/09/16 05:57:25;;;;;;;6.53;2.33;;;;;;;19.92;53.85;99565.03;4374994;32;33567;-92
2023/09/16 05:59:52;;;;;;;4.20;2.00;;;;;;;19.95;54.10;99564.09;4373595;32;33711;-90
2023/09/16 06:02:20;;;;;;;4.20;1.60;;;;;;;20.16;53.43;99566.34;4366860;32;33911;-91
2023/09/16 06:04:49;;;;;;;6.03;2.28;;;;;;;19.88;54.60;99567.75;4371416;32;33637;-90
2023/09/16 06:07:17;;;;;;;6.28;2.08;;;;;;;19.90;54.33;99565.97;4366476;32;33513;-93
2023/09/16 06:09:44;;;;;;;6.22;2.03;;;;;;;19.90;54.27;99569.47;4360116;32;33951;-93
2023/09/16 06:12:12;;;;;;;4.78;2.03;;;;;;;20.10;53.91;99576.97;4372205;32;34040;-92
2023/09/16 06:14:40;;;;;;;6.55;2.45;;;;;;;20.18;52.86;99574.19;4375272;32;34844;-91
2023/09/16 06:17:08;;;;;;;7.10;2.08;;;;;;;20.28;53.56;99574.87;4374746;32;32961;-91
2023/09/16 06:19:38;;;;;;;4.75;2.20;;;;;;;20.25;53.48;99573.19;4369263;32;33987;-92
2023/09/16 06:22:09;;;;;;;5.80;1.83;;;;;;;20.41;53.42;99564.06;4360290;32;34876;-92
2023/09/16 06:24:37;;;;;;;4.90;1.90;;;;;;;20.65;52.64;99561.84;4347096;32;34826;-93
2023/09/16 06:27:05;;;;;;;5.82;2.08;;;;;;;20.64;52.30;99560.97;4370870;32;32787;-91
2023/09/16 06:29:32;;;;;;;5.97;2.15;;;;;;;20.22;53.20;99567.09;4371442;32;34958;-94
2023/09/16 06:32:01;;;;;;;4.12;2.12;;;;;;;20.33;53.17;99557.22;4360240;32;33951;-92
2023/09/16 06:34:29;;;;;;;3.92;2.12;;;;;;;20.20;53.81;99564.50;4359937;32;34678;-93
2023/09/16 06:36:57;;;;;;;5.65;2.10;;;;;;;20.65;52.58;99556.59;4362343;32;33525;-93
2023/09/16 06:39:26;;;;;;;5.07;2.10;;;;;;;20.51;52.85;99559.50;4365927;32;32412;-94
2023/09/16 06:41:54;;;;;;;4.60;2.30;;;;;;;20.46;52.49;99560.50;4361162;32;33973;-93
2023/09/16 06:44:21;;;;;;;5.37;2.00;;;;;;;20.38;52.74;99560.63;4366636;32;34217;-93
2023/09/16 06:46:49;;;;;;;5.05;2.00;;;;;;;20.76;52.00;99569.50;4359642;32;34115;-92
2023/09/16 06:49:19;;;;;;;4.90;1.90;;;;;;;20.72;52.55;99565.19;4359744;32;33625;-94
2023/09/16 06:51:47;;;;;;;7.70;2.40;;;;;;;20.74;52.11;99572.19;4372591;32;34913;-92
2023/09/16 06:54:15;;;;;;;4.60;2.12;;;;;;;20.49;53.22;99563.91;4361206;32;33989;-93
2023/09/16 06:56:42;;;;;;;6.15;2.33;;;;;;;20.23;53.92;99564.47;4365337;32;33150;-91
2023/09/16 06:59:10;;;;;;;7.78;2.10;;;;;;;20.44;53.67;99570.16;4370745;32;34089;-92
2023/09/16 07:01:37;;;;;;;5.22;2.37;;;;;;;20.77;52.86;99564.22;4359546;32;33892;-92
2023/09/16 07:04:06;;;;;;;6.85;2.62;;;;;;;20.61;53.24;99576.00;4359401;32;34805;-91
2023/09/16 07:06:34;;;;;;;7.35;2.78;;;;;;;20.68;53.37;99572.28;4359615;32;34322;-94
2023/09/16 07:09:01;;;;;;;5.60;2.75;;;;;;;20.39;54.73;99580.81;4370249;32;33856;-92
2023/09/16 07:11:29;;;;;;;5.53;2.47;;;;;;;20.62;54.05;99583.00;4359743;32;34097;-94
2023/09/16 07:13:56;;;;;;;5.70;2.53;;;;;;;20.51;53.43;99577.09;4359650;32;33977;-93
2023/09/16 07:16:35;;;;;;;6.93;2.90;;;;;;;20.68;53.83;99582.84;4359289;32;34778;-92
2023/09/16 07:19:03;;;;;;;6.32;2.75;;;;;;;20.71;53.71;99582.78;4359278;32;34717;-92
2023/09/16 07:21:31;;;;;;;6.03;2.83;;;;;;;21.04;53.12;99573.25;4359830;32;33762;-91
2023/09/16 07:24:01;;;;;;;6.70;3.20;;;;;;;21.08;52.83;99581.94;4361236;32;33605;-94
2023/09/16 07:26:29;;;;;;;6.45;3.10;;;;;;;21.22;53.00;99574.59;4361575;32;33424;-93
2023/09/16 07:28:57;;;;;;;7.95;2.65;;;;;;;21.29;52.17;99580.56;4361250;32;33879;-94
2023/09/16 07:31:25;;;;;;;5.93;3.00;;;;;;;21.29;52.85;99584.09;4361682;32;34035;-92
2023/09/16 07:33:52;;;;;;;7.90;3.25;;;;;;;21.55;51.57;99585.22;4374578;32;34147;-93
2023/09/16 07:36:20;;;;;;;7.65;2.83;;;;;;;21.47;51.94;99581.91;4376228;32;33448;-91
2023/09/16 07:38:47;;;;;;;8.20;3.67;;;;;;;21.56;52.20;99586.97;4375303;32;34513;-93
2023/09/16 07:41:15;;;;;;;5.30;2.90;;;;;;;21.56;51.92;99584.34;4375970;32;34160;-91
2023/09/16 07:43:43;;;;;;;8.32;4.15;;;;;;;21.80;51.85;99583.69;4373088;32;34675;-89
2023/09/16 07:46:12;;;;;;;9.20;3.05;;;;;;;21.92;52.39;99576.34;4361326;32;33066;-96
2023/09/16 07:48:40;;;;;;;6.82;2.97;;;;;;;21.93;51.21;99578.06;4368451;32;34046;-92
2023/09/16 07:51:08;;;;;;;6.45;2.97;;;;;;;22.01;50.02;99570.81;4374649;32;34136;-91
2023/09/16 07:53:35;;;;;;;5.95;3.00;;;;;;;22.04;50.26;99568.09;4367376;32;33919;-95
2023/09/16 07:56:03;;;;;;;6.35;3.37;;;;;;;22.23;50.24;99573.75;4373312;32;34135;-95
2023/09/16 07:58:30;;;;;;;6.03;3.37;;;;;;;22.27;50.53;99567.47;4375882;32;34548;-91
2023/09/16 08:00:58;;;;;;;5.60;3.00;;;;;;;22.52;50.52;99567.66;4374538;32;35471;-91
2023/09/16 08:03:26;;;;;;;7.53;3.62;;;;;;;22.67;49.29;99556.63;4374526;32;34635;-94
2023/09/16 08:05:53;;;;;;;7.43;3.42;;;;;;;22.94;48.89;99567.28;4349645;32;32648;-94
2023/09/16 08:08:21;;;;;;;5.75;3.35;;;;;;;23.09;48.49;99558.00;4374732;32;34749;-93
2023/09/16 08:10:51;;;;;;;7.30;2.72;;;;;;;23.38;48.06;99565.00;4376222;32;34872;-94
2023/09/16 08:13:18;;;;;;;6.60;2.97;;;;;;;23.28;47.68;99562.62;4375892;32;33835;-92
2023/09/16 08:15:46;;;;;;;6.97;2.80;;;;;;;23.20;48.62;99567.31;4355974;32;34454;-92
2023/09/16 08:18:14;;;;;;;6.57;2.92;;;;;;;23.10;48.17;99562.38;4361048;32;34687;-93
2023/09/16 08:20:42;;;;;;;7.65;3.25;;;;;;;23.20;48.65;99577.91;4364594;32;34247;-93
2023/09/16 08:23:11;;;;;;;5.93;2.80;;;;;;;23.36;48.10;99577.41;4375823;32;34834;-93
2023/09/16 08:25:38;;;;;;;8.30;2.92;;;;;;;23.33;46.28;99572.19;4376148;32;33716;-93
2023/09/16 08:28:06;;;;;;;7.50;3.22;;;;;;;22.75;48.02;99578.38;4376054;32;34077;-92
2023/09/16 08:30:33;;;;;;;7.18;4.37;;;;;;;22.78;49.60;99580.94;4376338;32;34199;-89
2023/09/16 08:33:01;;;;;;;6.28;3.30;;;;;;;22.91;48.57;99575.28;4372016;32;34586;-93
2023/09/16 08:35:28;;;;;;;8.50;3.70;;;;;;;22.53;49.68;99578.16;4373015;32;34130;-93
2023/09/16 08:37:58;;;;;;;8.52;3.70;;;;;;;22.96;49.93;99573.41;4374493;32;33973;-94
2023/09/16 08:40:29;;;;;;;5.10;3.08;;;;;;;22.70;49.21;99577.66;4361702;32;35333;-93
2023/09/16 08:43:11;;;;;;;8.10;2.90;;;;;;;22.66;50.70;99569.88;4365706;32;33579;-91
2023/09/16 08:45:45;;;;;;;7.00;3.45;;;;;;;22.89;50.53;99569.19;4362459;32;33445;-95
2023/09/16 08:48:15;;;;;;;6.97;3.08;;;;;;;22.96;49.39;99574.25;4376163;32;33615;-93
2023/09/16 08:50:43;;;;;;;5.78;3.12;;;;;;;22.48;50.38;99576.56;4350167;32;33727;-92
2023/09/16 08:53:13;;;;;;;10.23;3.22;;;;;;;22.87;49.59;99574.50;4347315;32;33614;-93
2023/09/16 08:55:42;;;;;;;6.90;3.40;;;;;;;23.20;48.95;99577.91;4374514;32;33347;-92
2023/09/16 08:58:10;;;;;;;5.03;3.08;;;;;;;23.17;49.44;99577.13;4375872;32;33716;-93
2023/09/16 09:00:38;;;;;;;8.13;3.28;;;;;;;23.30;49.17;99574.03;4361977;32;34160;-92
2023/09/16 09:03:06;;;;;;;8.88;4.03;;;;;;;23.40;49.24;99579.03;4375951;32;34425;-93
2023/09/16 09:05:35;;;;;;;9.02;4.10;;;;;;;23.09;49.24;99579.16;4362180;32;33450;-95
2023/09/16 09:08:03;;;;;;;6.97;3.45;;;;;;;23.00;49.40;99581.19;4361144;32;33501;-93
2023/09/16 09:10:31;;;;;;;7.30;3.60;;;;;;;23.12;49.15;99579.94;4360836;32;33724;-93
2023/09/16 09:13:00;;;;;;;6.45;3.25;;;;;;;23.20;48.52;99575.25;4361427;32;34029;-94
2023/09/16 09:15:28;;;;;;;7.05;3.28;;;;;;;22.43;50.19;99568.78;4372006;32;33311;-94
2023/09/16 09:17:57;;;;;;;7.30;3.65;;;;;;;22.46;50.36;99570.47;4371949;32;33920;-94
2023/09/16 09:20:27;;;;;;;8.05;3.28;;;;;;;22.75;51.16;99575.75;4360716;32;34228;-93
2023/09/16 09:22:56;;;;;;;8.40;3.60;;;;;;;22.86;51.37;99569.28;4360982;32;33400;-93
2023/09/16 09:25:26;;;;;;;7.07;3.37;;;;;;;23.31;50.39;99559.03;4347254;32;33412;-91
2023/09/16 09:27:57;;;;;;;7.18;3.60;;;;;;;23.12;50.63;99564.06;4371935;32;34057;-93
2023/09/16 09:30:29;;;;;;;8.25;3.95;;;;;;;23.19;49.97;99557.66;4371436;32;34149;-94
2023/09/16 09:32:58;;;;;;;5.62;2.97;;;;;;;23.44;49.50;99570.06;4374478;32;33120;-94
2023/09/16 09:35:30;;;;;;;8.57;4.05;;;;;;;23.21;50.81;99569.03;4375309;32;33490;-92
2023/09/16 09:37:58;;;;;;;5.85;3.47;;;;;;;23.50;50.62;99564.56;4362070;32;33878;-94
2023/09/16 09:40:28;;;;;;;7.12;3.37;;;;;;;23.51;50.08;99563.66;4371160;32;34829;-94
2023/09/16 09:42:59;;;;;;;6.35;3.20;;;;;;;23.66;49.75;99564.91;4360566;32;33610;-89
2023/09/16 09:45:28;;;;;;;6.85;3.78;;;;;;;23.70;50.16;99575.38;4370763;32;33710;-90
2023/09/16 09:47:56;;;;;;;6.37;3.33;;;;;;;24.08;48.74;99570.50;4362926;32;33757;-94
2023/09/16 09:50:23;;;;;;;6.18;3.40;;;;;;;24.08;49.74;99567.00;4373560;32;34066;-94
2023/09/16 09:52:55;;;;;;;7.25;3.40;;;;;;;24.11;48.15;99564.25;4345003;32;212923;-92
2023/09/16 09:55:24;;;;;;;7.37;3.47;;;;;;;23.82;49.44;99559.97;4364763;32;33268;-93
2023/09/16 09:57:52;;;;;;;6.57;3.53;;;;;;;23.71;49.48;99570.94;4354442;32;34082;-94
2023/09/16 10:00:21;;;;;;;6.22;3.28;;;;;;;23.94;49.38;99562.19;4370519;32;34136;-96
2023/09/16 10:02:50;;;;;;;6.82;3.37;;;;;;;23.55;49.33;99562.62;4375866;32;33758;-94
2023/09/16 10:05:22;;;;;;;6.57;3.47;;;;;;;23.53;49.87;99567.13;4375075;32;34338;-94
2023/09/16 10:07:51;;;;;;;6.37;3.70;;;;;;;23.52;49.88;99563.62;4362383;32;33961;-95
2023/09/16 10:10:23;;;;;;;7.60;3.85;;;;;;;23.93;49.31;99558.69;4375867;32;33844;-93
2023/09/16 10:12:55;;;;;;;6.03;3.80;;;;;;;23.99;49.67;99553.19;4362101;32;33904;-95
2023/09/16 10:15:24;;;;;;;6.68;3.25;;;;;;;24.17;48.79;99548.09;4375273;32;33372;-95
2023/09/16 10:17:51;;;;;;;5.93;3.58;;;;;;;24.42;48.97;99556.06;4362023;32;33835;-93
2023/09/16 10:20:19;;;;;;;6.62;3.67;;;;;;;24.32;48.96;99544.94;4361254;32;34306;-94
2023/09/16 10:22:47;;;;;;;5.75;3.03;;;;;;;24.69;48.11;99555.00;4361629;32;33999;-94
2023/09/16 10:25:16;;;;;;;6.68;3.70;;;;;;;24.99;48.27;99547.62;4376625;32;34164;-95
2023/09/16 11:26:02;;;;;;;7.50;3.90;;;;;;;24.67;49.82;99514.44;4360086;32;33240;-83
2023/09/16 11:28:30;;;;;;;8.98;3.50;;;;;;;24.88;47.94;99519.81;4335807;32;33464;-83
2023/09/16 11:30:59;;;;;;;6.35;3.60;;;;;;;25.14;46.14;99509.03;4361442;32;34846;-84
2023/09/16 11:33:29;;;;;;;7.93;3.83;;;;;;;24.96;47.92;99504.44;4361611;32;33788;-82
2023/09/16 11:36:05;;;;;;;7.62;4.07;;;;;;;24.91;47.33;99514.38;4335713;32;32635;-84
2023/09/16 11:38:33;;;;;;;8.68;4.00;;;;;;;24.90;48.11;99505.56;4361417;32;34154;-84
2023/09/16 11:41:11;;;;;;;6.82;4.03;;;;;;;25.11;48.02;99502.97;4361459;32;34061;-83
2023/09/16 11:43:39;;;;;;;4.93;3.42;;;;;;;25.23;46.58;99508.66;4361431;32;34843;-82
2023/09/16 11:46:07;;;;;;;6.97;3.95;;;;;;;24.99;47.46;99506.97;4347762;32;33112;-83
2023/09/16 11:48:50;;;;;;;6.20;3.60;;;;;;;25.03;47.42;99502.41;4361549;32;34008;-84
2023/09/16 11:51:19;;;;;;;8.45;3.75;;;;;;;24.88;47.35;99506.53;4361371;32;34073;-84
2023/09/16 11:53:46;;;;;;;5.90;3.35;;;;;;;25.12;47.01;99494.97;4347940;32;34036;-83
2023/09/16 11:56:16;;;;;;;8.07;3.70;;;;;;;25.12;47.36;99502.06;4361248;32;34240;-83
2023/09/16 11:58:45;;;;;;;6.22;3.90;;;;;;;24.87;47.60;99494.22;4347770;32;34426;-84
2023/09/16 12:01:13;;;;;;;7.80;3.87;;;;;;;24.61;48.52;99493.47;4335549;32;33177;-83
2023/09/16 12:03:41;;;;;;;6.32;3.80;;;;;;;24.89;48.01;99489.69;4347893;32;33815;-84
2023/09/16 12:06:10;;;;;;;5.87;3.50;;;;;;;25.03;47.11;99494.44;4335826;32;33915;-83
2023/09/16 12:08:39;;;;;;;7.57;3.95;;;;;;;25.14;47.09;99489.59;4347808;32;34287;-84
2023/09/16 12:11:07;;;;;;;6.07;3.58;;;;;;;25.04;47.90;99485.56;4334642;32;34184;-83
2023/09/16 12:13:34;;;;;;;6.70;3.78;;;;;;;25.03;47.24;99491.78;4348033;32;34325;-83
2023/09/16 12:16:02;;;;;;;6.28;4.00;;;;;;;25.11;47.86;99493.22;4361300;32;35180;-84
2023/09/16 12:18:30;;;;;;;6.25;3.60;;;;;;;24.86;48.05;99481.88;4347769;32;33150;-83
2023/09/16 12:20:58;;;;;;;6.85;3.72;;;;;;;25.16;47.50;99490.41;4347727;32;33846;-83
2023/09/16 12:23:28;;;;;;;6.87;4.15;;;;;;;25.19;47.02;99480.53;4360986;32;34512;-83
2023/09/16 12:25:57;;;;;;;5.57;3.60;;;;;;;24.95;47.59;99481.50;4347430;32;32590;-85
2023/09/16 12:28:25;;;;;;;5.55;3.67;;;;;;;25.04;47.50;99485.56;4360203;32;33062;-83
2023/09/16 12:30:55;;;;;;;8.43;3.75;;;;;;;24.88;47.76;99472.06;4359595;32;33517;-83
2023/09/16 12:33:36;;;;;;;6.43;4.15;;;;;;;25.12;48.00;99478.19;4359949;32;34008;-83
2023/09/16 12:36:04;;;;;;;6.70;3.70;;;;;;;24.93;48.43;99481.56;4347328;32;33741;-83
2023/09/16 12:38:33;;;;;;;7.40;3.67;;;;;;;24.95;47.82;99476.19;4359474;32;32619;-83